M I D A S
Marine Information and Data Acquisition System
Tripno 1543 of the Zeeleeuw from 2008-08-25 07:15:02 to 2008-08-25 13:13:50
Back to CruiseResearch ActivitiesStationsMapUnderway DataData graphs

EquipmentUnitsComment
TimeDGPSUTC
LatitudeDGPSDM.mWGS84
LongitudeDGPSDM.mWGS84
HeadingGyrodeg 
SOGDGPSknotsSpeed over ground
COGDGPSdegCourse over ground
DepthEcho soundermeters200 kHz
Missing or incorrect values are displayed as -999
Navigation data collected by the RV Zeeleeuw from 2008-08-25 07:15:39 to 2008-08-25 13:24:30
                                                                                    Next 1000 lines
Time Latitude Longitude Heading SOG COG Depth
2008-08-25 07:15:49 51°13.624 2°56.046 110 0.7 288 10.6
2008-08-25 07:15:54 51°13.624 2°56.044 109.8 0.9 290 10.6
2008-08-25 07:15:59 51°13.625 2°56.042 109.7 1.1 290 10.7
2008-08-25 07:16:04 51°13.626 2°56.039 109.7 1.4 290 10.4
2008-08-25 07:16:09 51°13.626 2°56.036 109.8 1.7 292 10.6
2008-08-25 07:16:14 51°13.628 2°56.032 110.2 2.1 292 10.8
2008-08-25 07:16:19 51°13.629 2°56.027 110.8 2.4 293 -999
2008-08-25 07:16:24 51°13.63 2°56.022 111.2 2.7 293 -999
2008-08-25 07:16:29 51°13.631 2°56.016 111.4 3 293 -999
2008-08-25 07:16:34 51°13.633 2°56.009 111.7 3.2 293 -999
2008-08-25 07:16:39 51°13.635 2°56.002 111.8 3.5 293 -999
2008-08-25 07:16:44 51°13.637 2°55.995 111.8 3.7 293 -999
2008-08-25 07:16:49 51°13.639 2°55.987 111.8 3.9 293 -999
2008-08-25 07:16:54 51°13.641 2°55.979 111.7 4 292 -999
2008-08-25 07:16:59 51°13.643 2°55.97 111.6 4.2 292 -999
2008-08-25 07:17:04 51°13.645 2°55.962 111.3 4.3 292 -999
2008-08-25 07:17:09 51°13.647 2°55.953 111.2 4.4 292 -999
2008-08-25 07:17:14 51°13.65 2°55.944 111 4.5 291 -999
2008-08-25 07:17:19 51°13.652 2°55.934 111 4.6 291 -999
2008-08-25 07:17:24 51°13.654 2°55.924 111 4.6 292 -999
2008-08-25 07:17:29 51°13.656 2°55.915 111.2 4.7 292 -999
2008-08-25 07:17:34 51°13.659 2°55.905 111.7 4.7 292 -999
2008-08-25 07:17:39 51°13.661 2°55.896 111.7 4.7 292 -999
2008-08-25 07:17:44 51°13.664 2°55.886 111.3 4.7 292 -999
2008-08-25 07:17:49 51°13.666 2°55.877 110.9 4.6 292 -999
2008-08-25 07:17:54 51°13.668 2°55.868 110.3 4.5 292 -999
2008-08-25 07:17:59 51°13.671 2°55.859 109.5 4.3 292 -999
2008-08-25 07:18:04 51°13.673 2°55.85 108.6 4.2 290 -999
2008-08-25 07:18:09 51°13.675 2°55.842 107.3 4 290 -999
2008-08-25 07:18:14 51°13.676 2°55.833 106.1 3.9 290 -999
2008-08-25 07:18:19 51°13.678 2°55.825 104.9 3.8 289 -999
2008-08-25 07:18:24 51°13.68 2°55.818 103.5 3.6 288 -999
2008-08-25 07:18:29 51°13.681 2°55.81 102 3.4 287 -999
2008-08-25 07:18:34 51°13.682 2°55.803 100.7 3.3 286 -999
2008-08-25 07:18:39 51°13.684 2°55.797 99.7 3.2 286 -999
2008-08-25 07:18:44 51°13.685 2°55.79 98.3 3 285 -999
2008-08-25 07:18:49 51°13.686 2°55.784 97.1 2.8 284 -999
2008-08-25 07:18:54 51°13.687 2°55.779 96 2.4 284 12
2008-08-25 07:18:59 51°13.687 2°55.774 94.6 2.1 285 12.3
2008-08-25 07:19:04 51°13.688 2°55.77 93 1.7 285 12.6
2008-08-25 07:19:08 51°13.689 2°55.767 91.3 1.5 288 12.9
2008-08-25 07:19:13 51°13.689 2°55.765 88.4 1.1 293 13.2
2008-08-25 07:19:18 51°13.69 2°55.764 86.2 0.7 304 13.2
2008-08-25 07:19:23 51°13.691 2°55.763 82 0.6 344 13.2
2008-08-25 07:19:28 51°13.691 2°55.764 78.7 0.7 32 13.1
2008-08-25 07:19:33 51°13.693 2°55.765 73.4 0.9 38 13.1
2008-08-25 07:19:38 51°13.694 2°55.766 65.7 0.9 29 13.2
2008-08-25 07:19:43 51°13.695 2°55.767 61.2 0.7 32 13.3
2008-08-25 07:19:47 51°13.695 2°55.767 57 0.5 9 13.4
2008-08-25 07:19:52 51°13.696 2°55.766 53.4 0.3 301 13.5
2008-08-25 07:19:57 51°13.696 2°55.765 49.3 0.6 254 13.6
2008-08-25 07:20:02 51°13.695 2°55.763 46.4 1 237 13.4
2008-08-25 07:20:07 51°13.694 2°55.761 44.3 1.2 234 13.3
2008-08-25 07:20:12 51°13.693 2°55.76 41.3 1.1 233 13.4
2008-08-25 07:20:16 51°13.692 2°55.758 39.8 1 230 13.4
2008-08-25 07:20:21 51°13.691 2°55.757 37.9 0.8 236 -999
2008-08-25 07:20:27 51°13.691 2°55.756 36.3 0.2 290 -999
2008-08-25 07:20:33 51°13.692 2°55.756 32.9 0.8 5 -999
2008-08-25 07:20:38 51°13.694 2°55.757 27.9 1.6 10 -999
2008-08-25 07:20:44 51°13.697 2°55.758 21 2.3 5 -999
2008-08-25 07:20:49 51°13.701 2°55.758 12.7 2.8 357 13.7
2008-08-25 07:20:54 51°13.705 2°55.757 5.7 3.2 351 14.4
2008-08-25 07:20:59 51°13.71 2°55.755 358.6 3.7 345 14.5
2008-08-25 07:21:04 51°13.716 2°55.751 349.4 4.2 337 13.5
2008-08-25 07:21:08 51°13.721 2°55.748 340.8 4.7 334 13.1
2008-08-25 07:21:13 51°13.727 2°55.743 335 5.2 333 13.1
2008-08-25 07:21:18 51°13.734 2°55.737 333.1 5.5 330 12.8
2008-08-25 07:21:23 51°13.741 2°55.73 331 6 329 13
2008-08-25 07:21:28 51°13.748 2°55.722 329.8 6.2 328 12.5
2008-08-25 07:21:33 51°13.756 2°55.715 328.7 6.5 327 12.2
2008-08-25 07:21:37 51°13.762 2°55.708 328.2 6.8 327 12.2
2008-08-25 07:21:42 51°13.77 2°55.7 327.8 7 328 12
2008-08-25 07:21:47 51°13.779 2°55.692 327.8 7.2 328 12.3
2008-08-25 07:21:52 51°13.788 2°55.683 328.3 7.3 330 12.4
2008-08-25 07:21:57 51°13.797 2°55.675 329.2 7.4 330 12.6
2008-08-25 07:22:02 51°13.806 2°55.667 329.8 7.5 330 12.6
2008-08-25 07:22:06 51°13.813 2°55.66 330.1 7.7 331 12.5
2008-08-25 07:22:11 51°13.823 2°55.652 331.1 7.8 332 12.7
2008-08-25 07:22:16 51°13.832 2°55.644 331.7 7.9 331 12.8
2008-08-25 07:22:21 51°13.842 2°55.636 332 8 333 12.7
2008-08-25 07:22:26 51°13.852 2°55.628 333.1 8 334 12.6
2008-08-25 07:22:31 51°13.862 2°55.62 334.1 8.1 333 12.5
2008-08-25 07:22:36 51°13.872 2°55.612 334.3 8.2 334 12.9
2008-08-25 07:22:40 51°13.88 2°55.605 334.4 8.3 333 12.4
2008-08-25 07:22:45 51°13.891 2°55.597 334.4 8.3 333 12.5
2008-08-25 07:22:51 51°13.903 2°55.587 334.4 8.4 334 12.5
2008-08-25 07:22:56 51°13.914 2°55.579 334.4 8.4 334 12.6
2008-08-25 07:23:00 51°13.922 2°55.573 334.5 8.4 334 12.7
2008-08-25 07:23:05 51°13.932 2°55.564 334.5 8.4 334 12.9
2008-08-25 07:23:11 51°13.945 2°55.555 334.5 8.5 334 13
2008-08-25 07:23:16 51°13.956 2°55.546 334.5 8.5 334 12.7
2008-08-25 07:23:20 51°13.964 2°55.54 334.5 8.5 334 13.1
2008-08-25 07:23:26 51°13.977 2°55.53 334.4 8.5 334 13.1
2008-08-25 07:23:31 51°13.987 2°55.521 334.3 8.5 334 13
2008-08-25 07:23:36 51°13.998 2°55.513 334.2 8.5 334 12.9
2008-08-25 07:23:40 51°14.007 2°55.507 334.2 8.5 335 12.7
2008-08-25 07:23:45 51°14.017 2°55.499 334.7 8.5 335 12.8
2008-08-25 07:23:51 51°14.03 2°55.489 334.9 8.5 335 12.7
2008-08-25 07:23:56 51°14.04 2°55.481 334.3 8.5 334 12.8
2008-08-25 07:24:00 51°14.049 2°55.474 333.5 8.5 333 13
2008-08-25 07:24:05 51°14.06 2°55.466 333.1 8.5 333 13
2008-08-25 07:24:11 51°14.072 2°55.455 333.5 8.5 334 12.9
2008-08-25 07:24:16 51°14.083 2°55.447 334 8.5 333 12.9
2008-08-25 07:24:20 51°14.091 2°55.44 333.2 8.6 332 12.9
2008-08-25 07:24:25 51°14.102 2°55.431 332.6 8.6 332 12.9
2008-08-25 07:24:31 51°14.115 2°55.421 332.3 8.6 333 12.6
2008-08-25 07:24:36 51°14.125 2°55.412 333 8.5 332 13
2008-08-25 07:24:40 51°14.133 2°55.405 333.8 8.5 333 13
2008-08-25 07:24:45 51°14.144 2°55.396 334.1 8.5 332 13
2008-08-25 07:24:50 51°14.154 2°55.387 332.9 8.5 330 13
2008-08-25 07:24:56 51°14.166 2°55.375 331.2 8.5 329 12.9
2008-08-25 07:25:01 51°14.176 2°55.365 329.2 8.5 327 13
2008-08-25 07:25:05 51°14.184 2°55.356 327.1 8.5 325 12.7
2008-08-25 07:25:11 51°14.195 2°55.343 325.6 8.6 324 12.9
2008-08-25 07:25:15 51°14.203 2°55.334 324.5 8.7 323 12.9
2008-08-25 07:25:20 51°14.213 2°55.322 323.6 8.7 322 12.7
2008-08-25 07:25:25 51°14.222 2°55.31 322.8 8.8 321 12.2
2008-08-25 07:25:31 51°14.234 2°55.294 321.1 8.9 319 13
2008-08-25 07:25:36 51°14.243 2°55.281 319.1 9 318 12.5
2008-08-25 07:25:40 51°14.25 2°55.27 317.9 9.1 317 12.5
2008-08-25 07:25:45 51°14.259 2°55.256 317.7 9.1 316 12.4
2008-08-25 07:25:51 51°14.27 2°55.239 316.4 9.2 315 12.3
2008-08-25 07:25:56 51°14.279 2°55.224 314.2 9.3 313 12.3
2008-08-25 07:26:00 51°14.286 2°55.211 313.1 9.5 313 12.3
2008-08-25 07:26:05 51°14.295 2°55.196 313.1 9.7 313 12.4
2008-08-25 07:26:11 51°14.306 2°55.176 313.2 9.8 312 12.4
2008-08-25 07:26:16 51°14.315 2°55.16 313.2 9.9 312 12.6
2008-08-25 07:26:20 51°14.323 2°55.147 312.6 10 311 12.7
2008-08-25 07:26:25 51°14.332 2°55.13 311 10.2 310 12.9
2008-08-25 07:26:31 51°14.343 2°55.109 310.4 10.3 310 12.8
2008-08-25 07:26:36 51°14.352 2°55.091 310.3 10.5 310 12.9
2008-08-25 07:26:40 51°14.36 2°55.077 310.6 10.6 311 13.1
2008-08-25 07:26:45 51°14.37 2°55.059 311.1 10.7 312 13
2008-08-25 07:26:50 51°14.38 2°55.042 312 10.8 313 12.5
2008-08-25 07:26:56 51°14.392 2°55.021 312.4 10.9 314 12.5
2008-08-25 07:27:00 51°14.401 2°55.008 313.8 11.1 317 12.5
2008-08-25 07:27:05 51°14.413 2°54.991 315.3 11.3 318 12.6
2008-08-25 07:27:11 51°14.428 2°54.972 317.7 11.4 321 12.6
2008-08-25 07:27:15 51°14.438 2°54.959 319.4 11.5 320 12.6
2008-08-25 07:27:20 51°14.45 2°54.942 318 11.6 319 12.4
2008-08-25 07:27:25 51°14.462 2°54.925 315.6 11.7 317 12.5
2008-08-25 07:27:31 51°14.476 2°54.903 314.1 11.7 315 12.5
2008-08-25 07:27:36 51°14.486 2°54.884 311.6 11.7 311 12.3
2008-08-25 07:27:40 51°14.494 2°54.867 307.8 11.7 308 12.1
2008-08-25 07:27:45 51°14.504 2°54.847 305.1 11.5 307 12.2
2008-08-25 07:27:51 51°14.515 2°54.822 303.5 11.6 307 12.2
2008-08-25 07:27:56 51°14.525 2°54.802 303.3 11.6 307 12.2
2008-08-25 07:28:00 51°14.533 2°54.786 303.3 11.6 308 12.1
2008-08-25 07:28:06 51°14.545 2°54.761 303.4 11.6 307 12
2008-08-25 07:28:11 51°14.554 2°54.741 303.5 11.5 306 12.1
2008-08-25 07:28:16 51°14.564 2°54.721 303.4 11.3 306 12.1
2008-08-25 07:28:20 51°14.571 2°54.705 302.8 11.1 304 12
2008-08-25 07:28:25 51°14.579 2°54.684 300.3 10.9 301 12
2008-08-25 07:28:31 51°14.588 2°54.66 298.9 10.8 303 12
2008-08-25 07:28:36 51°14.596 2°54.639 299.3 10.8 303 12
2008-08-25 07:28:40 51°14.603 2°54.624 300 10.7 304 12.1
2008-08-25 07:28:45 51°14.611 2°54.605 300.7 10.7 305 12.2
2008-08-25 07:28:50 51°14.62 2°54.585 300.7 10.6 304 12.1
2008-08-25 07:28:56 51°14.629 2°54.562 300 10.5 304 12.1
2008-08-25 07:29:00 51°14.636 2°54.546 299.2 10.4 302 12.1
2008-08-25 07:29:05 51°14.643 2°54.527 298.7 10.4 302 12.2
2008-08-25 07:29:11 51°14.652 2°54.503 296 10.2 298 12.2
2008-08-25 07:29:15 51°14.657 2°54.487 294.2 10.2 298 12.3
2008-08-25 07:29:20 51°14.664 2°54.467 293.5 10.2 297 12.2
2008-08-25 07:29:25 51°14.67 2°54.447 292.4 10.2 296 12.3
2008-08-25 07:29:30 51°14.676 2°54.427 291.7 10.1 295 12.3
2008-08-25 07:29:36 51°14.683 2°54.403 290.9 10.1 295 12.3
2008-08-25 07:29:40 51°14.688 2°54.386 290.5 10.2 294 12.3
2008-08-25 07:29:45 51°14.693 2°54.366 290.1 10.1 294 12.3
2008-08-25 07:29:51 51°14.7 2°54.341 289.8 10.1 294 12.5
2008-08-25 07:29:56 51°14.706 2°54.321 289.7 10.2 294 12.6
2008-08-25 07:30:00 51°14.71 2°54.304 290.2 10.2 295 12.3
2008-08-25 07:30:05 51°14.716 2°54.284 290.5 10.2 295 12.3
2008-08-25 07:30:11 51°14.724 2°54.26 290.8 10.2 295 12.2
2008-08-25 07:30:16 51°14.729 2°54.239 290.6 10.1 294 12.2
2008-08-25 07:30:20 51°14.734 2°54.223 289.7 10.1 293 12.1
2008-08-25 07:30:25 51°14.739 2°54.202 288.8 10.1 293 12.2
2008-08-25 07:30:31 51°14.746 2°54.177 288.4 10.1 293 12.2
2008-08-25 07:30:36 51°14.751 2°54.157 288.1 10.1 293 12.2
2008-08-25 07:30:40 51°14.755 2°54.14 287.7 10.1 292 12.1
2008-08-25 07:30:45 51°14.761 2°54.12 287.9 10.1 294 11.9
2008-08-25 07:30:51 51°14.767 2°54.095 288.6 10.1 292 11.9
2008-08-25 07:30:56 51°14.773 2°54.075 289.3 10 294 11.9
2008-08-25 07:31:00 51°14.776 2°54.059 287.1 10 287 11.8
2008-08-25 07:31:05 51°14.78 2°54.038 284.1 9.9 287 11.8
2008-08-25 07:31:10 51°14.784 2°54.016 282.2 9.9 284 11.8
2008-08-25 07:31:16 51°14.788 2°53.991 280.4 9.9 283 11.8
2008-08-25 07:31:20 51°14.79 2°53.974 279.2 9.9 282 11.6
2008-08-25 07:31:25 51°14.793 2°53.952 277.9 9.9 281 11.7
2008-08-25 07:31:31 51°14.796 2°53.926 277.3 9.9 280 11.7
2008-08-25 07:31:35 51°14.797 2°53.909 276.3 10 279 11.8
2008-08-25 07:31:40 51°14.8 2°53.887 275.7 10 279 11.8
2008-08-25 07:31:45 51°14.802 2°53.865 275.2 10 278 11.7
2008-08-25 07:31:50 51°14.803 2°53.844 274.9 10 278 11.8
2008-08-25 07:31:56 51°14.806 2°53.817 274.9 10 278 12
2008-08-25 07:32:00 51°14.807 2°53.8 275.3 10 278 11.8
2008-08-25 07:32:05 51°14.809 2°53.778 274.9 10 277 11.9
2008-08-25 07:32:11 51°14.811 2°53.752 274.1 10 276 11.9
2008-08-25 07:32:16 51°14.812 2°53.73 273.6 10 276 11.8
2008-08-25 07:32:20 51°14.813 2°53.712 273 10 276 11.8
2008-08-25 07:32:25 51°14.815 2°53.69 272.9 10 276 11.9
2008-08-25 07:32:31 51°14.817 2°53.664 272.8 10 276 12.2
2008-08-25 07:32:36 51°14.818 2°53.641 272.8 10 276 12.4
2008-08-25 07:32:40 51°14.819 2°53.624 272.8 10 275 12.6
2008-08-25 07:32:45 51°14.821 2°53.602 272.8 10 276 12.4
2008-08-25 07:32:51 51°14.823 2°53.575 273.1 10 276 12.6
2008-08-25 07:32:56 51°14.824 2°53.553 273.2 10 276 12.3
2008-08-25 07:33:00 51°14.825 2°53.536 273.2 10 276 12.6
2008-08-25 07:33:05 51°14.827 2°53.514 273.5 10 277 12.5
2008-08-25 07:33:11 51°14.829 2°53.487 274.5 10.1 278 12.9
2008-08-25 07:33:16 51°14.831 2°53.465 274.9 10 278 12.6
2008-08-25 07:33:20 51°14.833 2°53.448 275.8 10 279 12.5
2008-08-25 07:33:25 51°14.835 2°53.426 276 10.1 279 12.7
2008-08-25 07:33:30 51°14.837 2°53.404 276.4 10.1 279 12.5
2008-08-25 07:33:36 51°14.84 2°53.378 276.5 10.1 280 12.5
2008-08-25 07:33:40 51°14.842 2°53.36 276.5 10.1 279 12.2
2008-08-25 07:33:45 51°14.844 2°53.338 276.6 10.1 279 12.5
2008-08-25 07:33:51 51°14.847 2°53.312 276.4 10 279 12.6
2008-08-25 07:33:56 51°14.849 2°53.29 276.4 10.1 280 12.2
2008-08-25 07:34:00 51°14.851 2°53.273 276.8 10 280 12.3
2008-08-25 07:34:05 51°14.854 2°53.251 276.8 10 279 12.3
2008-08-25 07:34:11 51°14.856 2°53.224 276.6 10 279 12.3
2008-08-25 07:34:16 51°14.859 2°53.202 276.6 10.1 280 12.3
2008-08-25 07:34:20 51°14.861 2°53.185 276.8 10.1 279 12.4
2008-08-25 07:34:25 51°14.863 2°53.163 276.8 10.1 280 12.3
2008-08-25 07:34:31 51°14.866 2°53.137 276.9 10.1 280 12.3
2008-08-25 07:34:36 51°14.868 2°53.115 277 10.1 279 12.3
2008-08-25 07:34:40 51°14.87 2°53.097 276.6 10.1 279 12.3
2008-08-25 07:34:45 51°14.872 2°53.075 276.2 10.1 279 12.3
2008-08-25 07:34:51 51°14.875 2°53.049 276.3 10.1 280 12.3
2008-08-25 07:34:56 51°14.877 2°53.027 276.8 10 279 12.3
2008-08-25 07:35:00 51°14.879 2°53.009 276.7 10 279 12.3
2008-08-25 07:35:05 51°14.881 2°52.987 276.6 10.1 280 12.3
2008-08-25 07:35:11 51°14.884 2°52.961 276 10.1 279 12.2
2008-08-25 07:35:16 51°14.886 2°52.939 275.9 10 279 12.2
2008-08-25 07:35:20 51°14.888 2°52.921 276.1 10 279 12.2
2008-08-25 07:35:25 51°14.89 2°52.899 276.1 10 280 12.2
2008-08-25 07:35:31 51°14.893 2°52.873 276.4 10 279 12.1
2008-08-25 07:35:36 51°14.895 2°52.851 276 10 278 12.1
2008-08-25 07:35:40 51°14.897 2°52.834 275 10 278 12.1
2008-08-25 07:35:45 51°14.899 2°52.812 275 10 279 12.1
2008-08-25 07:35:51 51°14.901 2°52.786 275.8 10 279 12.1
2008-08-25 07:35:56 51°14.904 2°52.764 276.3 10 280 12.1
2008-08-25 07:36:00 51°14.906 2°52.747 276.5 10 280 12.1
2008-08-25 07:36:05 51°14.908 2°52.725 276.6 10 280 12.1
2008-08-25 07:36:10 51°14.91 2°52.703 276.5 10 280 12.1
2008-08-25 07:36:16 51°14.913 2°52.677 276.5 10 280 12
2008-08-25 07:36:20 51°14.915 2°52.659 276.5 10 280 12
2008-08-25 07:36:25 51°14.917 2°52.638 276.5 10 280 12
2008-08-25 07:36:31 51°14.92 2°52.612 276.8 10.1 281 12.1
2008-08-25 07:36:36 51°14.922 2°52.59 277.1 10 280 12.1
2008-08-25 07:36:40 51°14.924 2°52.572 276.6 10 280 12.1
2008-08-25 07:36:45 51°14.926 2°52.55 276 10 278 12.1
2008-08-25 07:36:51 51°14.928 2°52.524 275.1 10 278 12.1
2008-08-25 07:36:56 51°14.93 2°52.502 274.7 10 278 12.2
2008-08-25 07:37:00 51°14.932 2°52.485 274.3 10 278 12.1
2008-08-25 07:37:05 51°14.934 2°52.463 274.3 10 277 12.2
2008-08-25 07:37:11 51°14.936 2°52.437 273.9 10.1 277 12.1
2008-08-25 07:37:16 51°14.937 2°52.415 274 10.1 278 12.1
2008-08-25 07:37:20 51°14.939 2°52.397 274.9 10.2 279 12.1
2008-08-25 07:37:25 51°14.941 2°52.374 275.7 10.3 279 12.2
2008-08-25 07:37:31 51°14.944 2°52.347 276.2 10.4 280 12.1
2008-08-25 07:37:36 51°14.946 2°52.324 276.4 10.6 280 12.2
2008-08-25 07:37:40 51°14.948 2°52.305 276.6 10.7 279 12.2
2008-08-25 07:37:45 51°14.951 2°52.282 276.5 10.8 280 12.3
2008-08-25 07:37:51 51°14.954 2°52.253 276.7 10.9 280 12.3
2008-08-25 07:37:56 51°14.956 2°52.229 276.7 11 279 12.2
2008-08-25 07:38:00 51°14.958 2°52.21 276.4 11.1 280 12.3
2008-08-25 07:38:05 51°14.961 2°52.186 276.8 11.2 280 12.3
2008-08-25 07:38:11 51°14.964 2°52.156 277.3 11.2 280 12.4
2008-08-25 07:38:15 51°14.966 2°52.137 277.2 11.2 280 12.4
2008-08-25 07:38:20 51°14.969 2°52.112 277.2 11.2 280 12.4
2008-08-25 07:38:25 51°14.972 2°52.088 277.2 11.3 280 12.5
2008-08-25 07:38:30 51°14.974 2°52.063 277.2 11.3 279 12.5
2008-08-25 07:38:36 51°14.978 2°52.033 277 11.4 279 12.6
2008-08-25 07:38:40 51°14.979 2°52.013 276.1 11.4 278 12.7
2008-08-25 07:38:45 51°14.982 2°51.988 275.5 11.5 278 12.7
2008-08-25 07:38:51 51°14.984 2°51.957 274.9 11.5 277 12.6
2008-08-25 07:38:56 51°14.986 2°51.932 274.9 11.5 279 12.5
2008-08-25 07:39:00 51°14.988 2°51.912 275.2 11.6 278 12.6
2008-08-25 07:39:05 51°14.991 2°51.887 275.8 11.6 279 12.8
2008-08-25 07:39:11 51°14.993 2°51.857 276 11.6 278 12.9
2008-08-25 07:39:16 51°14.995 2°51.831 275.2 11.6 277 12.9
2008-08-25 07:39:20 51°14.997 2°51.811 274.6 11.5 277 12.9
2008-08-25 07:39:25 51°14.999 2°51.786 274.3 11.5 276 13
2008-08-25 07:39:31 51°15.001 2°51.755 273.9 11.5 277 13
2008-08-25 07:39:36 51°15.002 2°51.73 273.7 11.6 277 13.2
2008-08-25 07:39:40 51°15.004 2°51.71 274.6 11.6 279 13.1
2008-08-25 07:39:45 51°15.006 2°51.684 275.1 11.6 277 13.3
2008-08-25 07:39:51 51°15.009 2°51.654 275 11.6 279 13.2
2008-08-25 07:39:56 51°15.012 2°51.629 275.9 11.6 279 13.2
2008-08-25 07:40:00 51°15.014 2°51.609 276.5 11.6 280 13.3
2008-08-25 07:40:05 51°15.017 2°51.583 277.1 11.6 281 13.3
2008-08-25 07:40:11 51°15.02 2°51.553 277.5 11.6 280 13.3
2008-08-25 07:40:16 51°15.023 2°51.527 277.5 11.6 279 13.4
2008-08-25 07:40:20 51°15.025 2°51.507 277.1 11.6 280 13.4
2008-08-25 07:40:25 51°15.028 2°51.482 277.2 11.6 280 13.5
2008-08-25 07:40:31 51°15.032 2°51.452 277.4 11.6 280 13.5
2008-08-25 07:40:36 51°15.035 2°51.426 277.5 11.6 280 13.5
2008-08-25 07:40:40 51°15.037 2°51.406 277.6 11.6 280 13.6
2008-08-25 07:40:45 51°15.04 2°51.381 277.4 11.6 280 13.6
2008-08-25 07:40:51 51°15.043 2°51.351 276.7 11.6 278 13.7
2008-08-25 07:40:55 51°15.045 2°51.33 275.9 11.6 279 13.7
2008-08-25 07:41:00 51°15.047 2°51.305 275.5 11.5 277 13.7
2008-08-25 07:41:05 51°15.049 2°51.28 274.6 11.5 278 13.7
2008-08-25 07:41:11 51°15.051 2°51.249 274.8 11.5 278 13.7
2008-08-25 07:41:16 51°15.053 2°51.224 274.6 11.5 277 13.8
2008-08-25 07:41:20 51°15.055 2°51.204 274 11.5 277 13.8
2008-08-25 07:41:25 51°15.057 2°51.179 274.3 11.5 278 13.9
2008-08-25 07:41:31 51°15.06 2°51.149 274.3 11.5 277 13.9
2008-08-25 07:41:36 51°15.061 2°51.124 274.2 11.5 277 13.9
2008-08-25 07:41:40 51°15.063 2°51.104 274.1 11.5 277 13.9
2008-08-25 07:41:46 51°15.065 2°51.073 274 11.5 277 14
2008-08-25 07:41:51 51°15.067 2°51.048 274.2 11.5 277 14
2008-08-25 07:41:56 51°15.069 2°51.023 274.3 11.5 277 14
2008-08-25 07:42:00 51°15.071 2°51.003 274.6 11.5 278 14
2008-08-25 07:42:05 51°15.073 2°50.978 274.6 11.5 278 14.1
2008-08-25 07:42:11 51°15.076 2°50.948 274.6 11.5 279 14
2008-08-25 07:42:16 51°15.079 2°50.923 276.3 11.5 281 14.1
2008-08-25 07:42:20 51°15.082 2°50.903 277.7 11.5 281 14
2008-08-25 07:42:25 51°15.085 2°50.878 278.6 11.5 283 14
2008-08-25 07:42:31 51°15.09 2°50.848 279.3 11.5 282 14
2008-08-25 07:42:36 51°15.094 2°50.823 280.1 11.6 284 14.2
2008-08-25 07:42:40 51°15.097 2°50.804 280.8 11.6 284 14
2008-08-25 07:42:45 51°15.101 2°50.779 281.5 11.6 286 14.1
2008-08-25 07:42:51 51°15.106 2°50.749 282.2 11.6 285 14.3
2008-08-25 07:42:56 51°15.111 2°50.724 283 11.7 287 14.4
2008-08-25 07:43:00 51°15.115 2°50.704 283.8 11.7 287 14.4
2008-08-25 07:43:05 51°15.12 2°50.68 284.1 11.7 288 14.3
2008-08-25 07:43:11 51°15.126 2°50.65 284.5 11.7 288 14.5
2008-08-25 07:43:16 51°15.131 2°50.626 284.6 11.7 288 14.2
2008-08-25 07:43:20 51°15.135 2°50.606 284.7 11.7 288 14.4
2008-08-25 07:43:25 51°15.14 2°50.582 285.2 11.7 288 14.4
2008-08-25 07:43:31 51°15.146 2°50.552 285.1 11.7 288 14.3
2008-08-25 07:43:36 51°15.151 2°50.528 284.6 11.7 288 14.4
2008-08-25 07:43:40 51°15.155 2°50.508 284.4 11.6 287 14.5
2008-08-25 07:43:45 51°15.159 2°50.484 284.3 11.7 288 14.3
2008-08-25 07:43:51 51°15.165 2°50.454 284.3 11.7 287 14.5
2008-08-25 07:43:56 51°15.17 2°50.429 284.1 11.7 287 14.3
2008-08-25 07:44:00 51°15.174 2°50.409 284.4 11.7 287 14.3
2008-08-25 07:44:05 51°15.179 2°50.385 283.9 11.7 287 14.3
2008-08-25 07:44:11 51°15.185 2°50.355 283.7 11.6 287 14.3
2008-08-25 07:44:16 51°15.189 2°50.331 283.6 11.7 286 14.6
2008-08-25 07:44:20 51°15.192 2°50.311 283.3 11.6 287 14.3
2008-08-25 07:44:25 51°15.198 2°50.286 283.8 11.6 287 14.4
2008-08-25 07:44:31 51°15.203 2°50.256 283.9 11.7 287 14.5
2008-08-25 07:44:36 51°15.208 2°50.231 284 11.7 287 14.5
2008-08-25 07:44:40 51°15.212 2°50.212 283.8 11.7 287 14.7
2008-08-25 07:44:45 51°15.216 2°50.187 283.7 11.7 287 14.7
2008-08-25 07:44:51 51°15.222 2°50.157 283.6 11.7 286 14.6
2008-08-25 07:44:56 51°15.227 2°50.132 283.6 11.7 287 14.8
2008-08-25 07:45:00 51°15.231 2°50.112 283.6 11.7 286 14.6
2008-08-25 07:45:05 51°15.235 2°50.088 283.4 11.6 286 14.4
2008-08-25 07:45:10 51°15.24 2°50.063 283.3 11.7 286 14.5
2008-08-25 07:45:16 51°15.245 2°50.033 283.3 11.7 287 14.7
2008-08-25 07:45:20 51°15.249 2°50.014 283.7 11.7 287 14.5
2008-08-25 07:45:25 51°15.253 2°49.989 283.4 11.7 286 14.5
2008-08-25 07:45:31 51°15.259 2°49.959 283.1 11.7 287 14.6
2008-08-25 07:45:36 51°15.263 2°49.935 283.3 11.6 286 14.4
2008-08-25 07:45:41 51°15.267 2°49.911 283.3 11.7 286 14.5
2008-08-25 07:45:45 51°15.271 2°49.891 283.3 11.7 286 14.6
2008-08-25 07:45:51 51°15.276 2°49.861 283.1 11.7 286 14.6
2008-08-25 07:45:56 51°15.281 2°49.836 283.3 11.7 286 14.3
2008-08-25 07:46:00 51°15.284 2°49.817 282.5 11.6 284 14.4
2008-08-25 07:46:05 51°15.288 2°49.792 281.7 11.6 284 14.4
2008-08-25 07:46:11 51°15.292 2°49.762 281 11.6 283 14.7
2008-08-25 07:46:16 51°15.296 2°49.737 280.4 11.6 283 14.9
2008-08-25 07:46:20 51°15.299 2°49.717 280 11.6 283 14.5
2008-08-25 07:46:25 51°15.303 2°49.692 279.9 11.6 283 14.5
2008-08-25 07:46:31 51°15.307 2°49.662 279.9 11.6 284 14.7
2008-08-25 07:46:36 51°15.311 2°49.637 280.1 11.6 283 14.4
2008-08-25 07:46:40 51°15.315 2°49.617 281.7 11.6 287 14.7
2008-08-25 07:46:45 51°15.319 2°49.592 283.8 11.7 288 14.6
2008-08-25 07:46:51 51°15.326 2°49.563 285.8 11.7 290 14.7
2008-08-25 07:46:56 51°15.332 2°49.539 287 11.7 291 14.6
2008-08-25 07:47:00 51°15.337 2°49.52 288.5 11.8 293 14.8
2008-08-25 07:47:05 51°15.343 2°49.496 289.1 11.8 292 14.6
2008-08-25 07:47:10 51°15.349 2°49.472 289.6 11.8 293 14.6
2008-08-25 07:47:16 51°15.357 2°49.443 290.2 11.8 292 14.7
2008-08-25 07:47:20 51°15.362 2°49.424 288.9 11.8 291 14.7
2008-08-25 07:47:25 51°15.368 2°49.4 288.8 11.7 291 14.8
2008-08-25 07:47:31 51°15.374 2°49.37 287.9 11.7 290 14.7
2008-08-25 07:47:35 51°15.379 2°49.351 287.4 11.8 290 14.8
2008-08-25 07:47:40 51°15.384 2°49.326 287.2 11.7 289 14.8
2008-08-25 07:47:45 51°15.39 2°49.302 286.6 11.7 290 14.8
2008-08-25 07:47:50 51°15.395 2°49.277 286.7 11.7 289 14.8
2008-08-25 07:47:56 51°15.401 2°49.248 286.6 11.7 290 14.8
2008-08-25 07:48:00 51°15.406 2°49.229 286.7 11.7 290 14.8
2008-08-25 07:48:06 51°15.412 2°49.199 286.8 11.7 290 14.8
2008-08-25 07:48:11 51°15.418 2°49.175 287 11.7 290 14.8
2008-08-25 07:48:15 51°15.422 2°49.155 286.6 11.7 289 14.7
2008-08-25 07:48:20 51°15.428 2°49.131 286 11.7 289 14.7
2008-08-25 07:48:25 51°15.433 2°49.106 286.1 11.7 289 14.7
2008-08-25 07:48:31 51°15.439 2°49.077 286.2 11.7 290 14.6
2008-08-25 07:48:36 51°15.445 2°49.053 286.2 11.7 290 14.5
2008-08-25 07:48:40 51°15.449 2°49.033 286.4 11.7 290 14.4
2008-08-25 07:48:45 51°15.455 2°49.009 286.6 11.7 290 14.3
2008-08-25 07:48:51 51°15.461 2°48.98 286.2 11.6 289 14.2
2008-08-25 07:48:56 51°15.466 2°48.956 286.2 11.6 289 13.9
2008-08-25 07:49:00 51°15.471 2°48.937 286 11.7 290 13.7
2008-08-25 07:49:05 51°15.476 2°48.912 286.1 11.6 290 13.6
2008-08-25 07:49:11 51°15.482 2°48.883 286.3 11.6 289 13.4
2008-08-25 07:49:16 51°15.488 2°48.859 286 11.6 289 13.2
2008-08-25 07:49:20 51°15.492 2°48.839 286 11.6 289 12.9
2008-08-25 07:49:25 51°15.497 2°48.815 286 11.6 290 12.8
2008-08-25 07:49:31 51°15.504 2°48.786 286 11.6 289 12.6
2008-08-25 07:49:36 51°15.509 2°48.762 285.9 11.6 289 12.5
2008-08-25 07:49:40 51°15.513 2°48.742 285.8 11.6 289 12.4
2008-08-25 07:49:45 51°15.518 2°48.718 285.5 11.6 289 12.3
2008-08-25 07:49:51 51°15.524 2°48.689 285.4 11.6 289 12.3
2008-08-25 07:49:55 51°15.529 2°48.669 285.6 11.7 289 12.2
2008-08-25 07:50:00 51°15.534 2°48.645 285.9 11.7 289 12.2
2008-08-25 07:50:05 51°15.539 2°48.62 285.7 11.7 288 12.2
2008-08-25 07:50:11 51°15.545 2°48.591 285.9 11.7 289 12.2
2008-08-25 07:50:16 51°15.55 2°48.566 286.1 11.7 289 12.1
2008-08-25 07:50:20 51°15.555 2°48.547 285.9 11.7 288 12.2
2008-08-25 07:50:25 51°15.559 2°48.522 285.6 11.8 288 12.2
2008-08-25 07:50:31 51°15.566 2°48.492 285.5 11.8 288 12.1
2008-08-25 07:50:35 51°15.57 2°48.473 285.3 11.8 287 12.2
2008-08-25 07:50:40 51°15.574 2°48.448 285.3 11.8 289 12.3
2008-08-25 07:50:45 51°15.58 2°48.424 285.9 11.8 288 12.3
2008-08-25 07:50:51 51°15.586 2°48.394 285.9 11.8 288 12.4
2008-08-25 07:50:56 51°15.591 2°48.369 285.8 11.8 288 12.4
2008-08-25 07:51:00 51°15.594 2°48.349 285.3 11.8 287 12.5
2008-08-25 07:51:06 51°15.6 2°48.32 284 11.7 287 12.5
2008-08-25 07:51:11 51°15.605 2°48.295 284.4 11.8 288 12.7
2008-08-25 07:51:16 51°15.61 2°48.27 284.8 11.8 288 12.7
2008-08-25 07:51:20 51°15.614 2°48.25 285.3 11.8 288 12.8
2008-08-25 07:51:25 51°15.619 2°48.225 285.7 11.8 288 12.9
2008-08-25 07:51:31 51°15.625 2°48.195 285.7 11.8 288 13
2008-08-25 07:51:36 51°15.63 2°48.171 285.4 11.8 288 13.1
2008-08-25 07:51:40 51°15.635 2°48.151 285.7 11.8 289 13.2
2008-08-25 07:51:45 51°15.64 2°48.126 285.8 11.8 288 13.4
2008-08-25 07:51:51 51°15.646 2°48.096 285.8 11.8 289 13.4
2008-08-25 07:51:56 51°15.651 2°48.072 285.8 11.8 288 13.5
2008-08-25 07:52:00 51°15.656 2°48.052 285.9 11.8 288 13.8
2008-08-25 07:52:05 51°15.661 2°48.027 285.9 11.8 288 13.8
2008-08-25 07:52:11 51°15.667 2°47.997 286 11.8 289 13.9
2008-08-25 07:52:15 51°15.672 2°47.977 286.3 11.8 289 14.1
2008-08-25 07:52:20 51°15.677 2°47.953 285.9 11.8 289 14.2
2008-08-25 07:52:25 51°15.682 2°47.928 285.9 11.8 289 14.3
2008-08-25 07:52:31 51°15.688 2°47.898 285.9 11.8 288 14.4
2008-08-25 07:52:36 51°15.694 2°47.874 285.7 11.8 289 14.6
2008-08-25 07:52:40 51°15.698 2°47.854 285.9 11.8 289 14.8
2008-08-25 07:52:46 51°15.704 2°47.824 285.8 11.8 289 15
2008-08-25 07:52:51 51°15.71 2°47.8 285.9 11.7 289 15.1
2008-08-25 07:52:55 51°15.714 2°47.78 285.9 11.8 289 15.3
2008-08-25 07:53:00 51°15.719 2°47.756 285.7 11.7 289 15.5
2008-08-25 07:53:05 51°15.724 2°47.731 285.7 11.7 289 15.6
2008-08-25 07:53:11 51°15.731 2°47.701 285.9 11.7 289 15.7
2008-08-25 07:53:16 51°15.736 2°47.677 285.8 11.7 288 15.9
2008-08-25 07:53:20 51°15.74 2°47.657 284.5 11.6 287 15.9
2008-08-25 07:53:25 51°15.744 2°47.633 283.8 11.6 286 16.1
2008-08-25 07:53:31 51°15.75 2°47.603 283.4 11.6 287 16.1
2008-08-25 07:53:36 51°15.754 2°47.578 283 11.6 285 16.2
2008-08-25 07:53:40 51°15.758 2°47.558 282.4 11.6 286 16.3
2008-08-25 07:53:45 51°15.762 2°47.534 282.4 11.6 286 16.3
2008-08-25 07:53:50 51°15.767 2°47.509 282.9 11.6 286 16.4
2008-08-25 07:53:56 51°15.772 2°47.48 282.4 11.6 285 16.5
2008-08-25 07:54:00 51°15.775 2°47.46 282.3 11.6 286 16.6
2008-08-25 07:54:05 51°15.78 2°47.435 282.5 11.5 286 16.7
2008-08-25 07:54:10 51°15.784 2°47.411 282.6 11.6 286 16.8
2008-08-25 07:54:16 51°15.79 2°47.381 283 11.6 286 17
2008-08-25 07:54:20 51°15.793 2°47.362 282.8 11.6 287 17.2
2008-08-25 07:54:25 51°15.798 2°47.337 283.3 11.6 287 17.3
2008-08-25 07:54:31 51°15.803 2°47.307 283.1 11.6 286 17.4
2008-08-25 07:54:35 51°15.807 2°47.288 283.7 11.7 288 17.5
2008-08-25 07:54:41 51°15.813 2°47.258 284.6 11.7 288 17.7
2008-08-25 07:54:45 51°15.818 2°47.239 285.5 11.7 289 17.8
2008-08-25 07:54:50 51°15.823 2°47.214 285.9 11.7 289 17.8
2008-08-25 07:54:56 51°15.83 2°47.185 286 11.7 290 18
2008-08-25 07:55:00 51°15.834 2°47.165 286.5 11.7 290 18.1
2008-08-25 07:55:05 51°15.84 2°47.141 286.3 11.7 289 18.2
2008-08-25 07:55:11 51°15.846 2°47.112 285.9 11.7 289 18.1
2008-08-25 07:55:16 51°15.851 2°47.087 286 11.7 290 18.2
2008-08-25 07:55:20 51°15.856 2°47.068 286.3 11.7 289 18.3
2008-08-25 07:55:25 51°15.861 2°47.044 286.3 11.7 291 18.3
2008-08-25 07:55:31 51°15.868 2°47.015 286.8 11.7 290 18.3
2008-08-25 07:55:36 51°15.873 2°46.99 286.5 11.7 290 18.3
2008-08-25 07:55:40 51°15.878 2°46.971 286 11.7 290 18.3
2008-08-25 07:55:45 51°15.883 2°46.946 286.1 11.7 289 18.3
2008-08-25 07:55:51 51°15.89 2°46.917 286.1 11.7 290 18.4
2008-08-25 07:55:56 51°15.895 2°46.893 285.9 11.7 290 18.3
2008-08-25 07:56:00 51°15.9 2°46.873 285.9 11.7 290 18.3
2008-08-25 07:56:05 51°15.905 2°46.849 286 11.7 290 18.2
2008-08-25 07:56:11 51°15.912 2°46.82 286.1 11.7 290 18.2
2008-08-25 07:56:16 51°15.918 2°46.795 286.5 11.7 290 18.2
2008-08-25 07:56:20 51°15.922 2°46.776 286.1 11.7 289 18.2
2008-08-25 07:56:25 51°15.927 2°46.752 285.9 11.7 290 18
2008-08-25 07:56:30 51°15.933 2°46.727 285.9 11.7 290 17.9
2008-08-25 07:56:36 51°15.939 2°46.698 286 11.7 290 17.7
2008-08-25 07:56:40 51°15.944 2°46.679 286.6 11.7 291 17.8
2008-08-25 07:56:45 51°15.949 2°46.655 286.5 11.7 290 17.7
2008-08-25 07:56:51 51°15.956 2°46.626 286.2 11.7 290 17.6
2008-08-25 07:56:55 51°15.961 2°46.607 286.5 11.7 290 17.3
2008-08-25 07:57:01 51°15.967 2°46.577 286.1 11.7 289 17
2008-08-25 07:57:05 51°15.971 2°46.558 285.5 11.7 290 17
2008-08-25 07:57:11 51°15.978 2°46.529 286 11.7 290 16.8
2008-08-25 07:57:16 51°15.983 2°46.505 286 11.7 289 16.5
2008-08-25 07:57:20 51°15.988 2°46.485 285.8 11.7 291 16
2008-08-25 07:57:25 51°15.993 2°46.461 285.9 11.6 290 15.6
2008-08-25 07:57:31 51°16.001 2°46.433 288.5 11.7 295 15.6
2008-08-25 07:57:36 51°16.008 2°46.409 289.6 11.7 293 15.5
2008-08-25 07:57:40 51°16.013 2°46.391 290.5 11.7 296 15.5
2008-08-25 07:57:46 51°16.022 2°46.363 291.3 11.8 296 15.3
2008-08-25 07:57:51 51°16.029 2°46.34 291.7 11.8 297 15.2
2008-08-25 07:57:56 51°16.037 2°46.317 292.7 11.8 298 14.9
2008-08-25 07:58:00 51°16.043 2°46.298 293.8 11.8 299 14.8
2008-08-25 07:58:05 51°16.052 2°46.276 294.8 11.9 301 14.8
2008-08-25 07:58:10 51°16.06 2°46.254 295.8 11.9 301 14.6
2008-08-25 07:58:16 51°16.071 2°46.226 296.1 11.9 301 14.5
2008-08-25 07:58:20 51°16.077 2°46.208 296.1 11.9 301 14.3
2008-08-25 07:58:25 51°16.086 2°46.186 296.3 11.9 300 14.1
2008-08-25 07:58:31 51°16.096 2°46.158 296.6 11.9 301 13.8
2008-08-25 07:58:36 51°16.105 2°46.136 296.8 11.9 301 13.5
2008-08-25 07:58:40 51°16.111 2°46.118 296.8 11.9 301 13.2
2008-08-25 07:58:45 51°16.12 2°46.095 297.1 11.9 301 13.2
2008-08-25 07:58:50 51°16.129 2°46.073 297.3 12 301 13.2
2008-08-25 07:58:55 51°16.137 2°46.05 296.9 12 300 13.1
2008-08-25 07:59:00 51°16.146 2°46.027 296.4 11.9 300 12.9
2008-08-25 07:59:05 51°16.154 2°46.004 296.1 12 300 12.8
2008-08-25 07:59:11 51°16.164 2°45.977 296.1 12 300 12.8
2008-08-25 07:59:15 51°16.171 2°45.958 296.5 11.9 300 12.6
2008-08-25 07:59:21 51°16.181 2°45.931 296.4 12 300 12.7
2008-08-25 07:59:25 51°16.188 2°45.913 296.6 12 300 12.6
2008-08-25 07:59:31 51°16.198 2°45.885 296.5 12 300 12.5
2008-08-25 07:59:36 51°16.206 2°45.862 296.5 12 301 12.4
2008-08-25 07:59:40 51°16.213 2°45.844 296.5 12 300 12.3
2008-08-25 07:59:46 51°16.223 2°45.816 296.2 12 299 12.1
2008-08-25 07:59:51 51°16.231 2°45.794 296.1 12 300 12
2008-08-25 07:59:55 51°16.238 2°45.775 295.7 12 299 11.9
2008-08-25 08:00:01 51°16.248 2°45.747 295.9 12 301 12.1
2008-08-25 08:00:05 51°16.254 2°45.729 295.8 12 299 12.1
2008-08-25 08:00:11 51°16.264 2°45.701 295.1 12 299 12.1
2008-08-25 08:00:16 51°16.272 2°45.678 294.6 11.9 297 12
2008-08-25 08:00:20 51°16.278 2°45.659 293.5 11.9 297 12.1
2008-08-25 08:00:25 51°16.286 2°45.636 294 12 299 12
2008-08-25 08:00:31 51°16.295 2°45.608 294.2 12 298 12
2008-08-25 08:00:36 51°16.304 2°45.585 294.5 12 299 12.1
2008-08-25 08:00:41 51°16.312 2°45.562 294.8 12 299 12.2
2008-08-25 08:00:45 51°16.318 2°45.543 295.4 12.1 300 12.2
2008-08-25 08:00:51 51°16.328 2°45.516 296.2 12.1 300 12.5
2008-08-25 08:00:56 51°16.337 2°45.493 295.7 12.1 299 12.5
2008-08-25 08:01:00 51°16.343 2°45.474 295.5 12 299 12.4
2008-08-25 08:01:05 51°16.351 2°45.451 295.4 12.1 300 12.4
2008-08-25 08:01:10 51°16.36 2°45.428 296 12.1 300 12.4
2008-08-25 08:01:16 51°16.37 2°45.4 296.2 12.1 301 12.6
2008-08-25 08:01:20 51°16.377 2°45.382 296.6 12.1 301 12.4
2008-08-25 08:01:25 51°16.386 2°45.359 297 12.1 301 12.5
2008-08-25 08:01:31 51°16.396 2°45.331 296.6 12.1 300 12.6
2008-08-25 08:01:35 51°16.402 2°45.312 295.2 12 298 12.6
2008-08-25 08:01:41 51°16.412 2°45.285 294.8 12 299 12.6
2008-08-25 08:01:45 51°16.418 2°45.266 294.2 12 297 12.6
2008-08-25 08:01:51 51°16.427 2°45.237 293.3 12 297 12.8
2008-08-25 08:01:56 51°16.434 2°45.214 293.1 12 297 12.9
2008-08-25 08:02:00 51°16.44 2°45.195 292.8 12 296 13
2008-08-25 08:02:05 51°16.448 2°45.171 293 12 298 12.9
2008-08-25 08:02:11 51°16.457 2°45.144 293.1 12 297 12.9
2008-08-25 08:02:16 51°16.465 2°45.12 294.2 12.1 300 13
2008-08-25 08:02:20 51°16.472 2°45.102 295.1 12.1 299 12.9
2008-08-25 08:02:25 51°16.48 2°45.079 295.5 12.1 300 13.2
2008-08-25 08:02:31 51°16.49 2°45.051 296 12.1 300 13.1
2008-08-25 08:02:36 51°16.499 2°45.028 296.6 12.1 301 13.1
2008-08-25 08:02:40 51°16.505 2°45.009 296.9 12 300 12.9
2008-08-25 08:02:45 51°16.514 2°44.986 296.3 12.1 300 12.8
2008-08-25 08:02:51 51°16.524 2°44.959 296.5 12.1 300 12.8
2008-08-25 08:02:56 51°16.532 2°44.936 296.3 12.1 300 12.6
2008-08-25 08:03:00 51°16.539 2°44.918 296.7 12.1 301 12.5
2008-08-25 08:03:05 51°16.548 2°44.895 296.5 12.1 300 12.5
2008-08-25 08:03:11 51°16.558 2°44.867 296.1 12 300 12.7
2008-08-25 08:03:16 51°16.566 2°44.844 296.1 12.1 300 13.2
2008-08-25 08:03:21 51°16.575 2°44.821 296.5 12.1 300 13.3
2008-08-25 08:03:25 51°16.581 2°44.802 296.5 12.1 300 13.2
2008-08-25 08:03:30 51°16.59 2°44.779 296.4 12.1 300 13.2
2008-08-25 08:03:36 51°16.6 2°44.752 296.7 12.1 300 13
2008-08-25 08:03:40 51°16.607 2°44.733 296.4 12 300 13
2008-08-25 08:03:46 51°16.617 2°44.706 296.6 12.1 301 13.3
2008-08-25 08:03:51 51°16.625 2°44.682 296.6 12.1 300 13.4
2008-08-25 08:03:55 51°16.632 2°44.664 296.2 12 300 13.8
2008-08-25 08:04:01 51°16.642 2°44.636 295.8 12.1 299 14
2008-08-25 08:04:05 51°16.648 2°44.617 295.1 12 299 13.7
2008-08-25 08:04:11 51°16.658 2°44.59 295.2 12.1 299 13.9
2008-08-25 08:04:16 51°16.666 2°44.566 295.1 12 299 13.9
2008-08-25 08:04:20 51°16.672 2°44.548 294.8 12 298 14.4
2008-08-25 08:04:25 51°16.68 2°44.524 294.5 12 298 14.2
2008-08-25 08:04:31 51°16.69 2°44.496 294.4 12.1 299 14.6
2008-08-25 08:04:36 51°16.698 2°44.473 294.6 12 299 15.2
2008-08-25 08:04:40 51°16.705 2°44.454 295.4 12.1 301 15.4
2008-08-25 08:04:45 51°16.713 2°44.431 296.4 12.1 300 15.7
2008-08-25 08:04:51 51°16.724 2°44.404 296.8 12.1 302 15.9
2008-08-25 08:04:56 51°16.733 2°44.381 297.8 12.1 301 15.9
2008-08-25 08:05:00 51°16.74 2°44.363 297.6 12.1 302 16
2008-08-25 08:05:05 51°16.749 2°44.34 298.2 12.1 303 16
2008-08-25 08:05:11 51°16.76 2°44.313 298.4 12.1 302 16.3
2008-08-25 08:05:16 51°16.769 2°44.291 298.6 12.1 303 16.3
2008-08-25 08:05:20 51°16.776 2°44.272 298.2 12.1 301 16.3
2008-08-25 08:05:25 51°16.784 2°44.25 297.3 12.1 300 16.3
2008-08-25 08:05:31 51°16.794 2°44.222 296.6 12.1 301 16.4
2008-08-25 08:05:36 51°16.803 2°44.199 296 12 299 16.4
2008-08-25 08:05:40 51°16.809 2°44.18 295.8 12.1 300 16.6
2008-08-25 08:05:45 51°16.818 2°44.157 295.4 12.1 299 16.6
2008-08-25 08:05:50 51°16.826 2°44.134 295.6 12.1 301 16.6
2008-08-25 08:05:56 51°16.837 2°44.106 296.9 12.1 302 16.6
2008-08-25 08:06:00 51°16.843 2°44.088 297.2 12.1 301 16.7
2008-08-25 08:06:05 51°16.852 2°44.065 297.3 12.1 301 16.7
2008-08-25 08:06:11 51°16.863 2°44.037 297.5 12.1 301 16.7
2008-08-25 08:06:16 51°16.872 2°44.015 297.9 12.1 302 16.8
2008-08-25 08:06:20 51°16.879 2°43.997 298.3 12.1 302 16.8
2008-08-25 08:06:25 51°16.888 2°43.974 298.3 12.1 302 16.5
2008-08-25 08:06:31 51°16.899 2°43.946 298.5 12.1 302 16.4
2008-08-25 08:06:36 51°16.907 2°43.923 298 12.1 302 16.6
2008-08-25 08:06:40 51°16.914 2°43.905 297.8 12 301 16.6
2008-08-25 08:06:46 51°16.925 2°43.878 298.1 12.1 302 16.5
2008-08-25 08:06:51 51°16.934 2°43.856 298 12.1 301 16.2
2008-08-25 08:06:56 51°16.942 2°43.833 298.1 12.1 302 16.1
2008-08-25 08:07:00 51°16.949 2°43.815 298.4 12.1 302 16.3
2008-08-25 08:07:05 51°16.958 2°43.792 298.4 12.1 302 16.3
2008-08-25 08:07:11 51°16.969 2°43.765 298.7 12.1 302 16.3
2008-08-25 08:07:16 51°16.978 2°43.742 298.5 12.1 302 16.1
2008-08-25 08:07:20 51°16.985 2°43.724 298.5 12.1 302 16
2008-08-25 08:07:25 51°16.994 2°43.701 298.3 12.1 302 15.9
2008-08-25 08:07:30 51°17.003 2°43.678 298.7 12.1 302 16
2008-08-25 08:07:36 51°17.013 2°43.651 298.7 12.1 302 15.5
2008-08-25 08:07:40 51°17.02 2°43.633 298.3 12.1 301 16
2008-08-25 08:07:45 51°17.029 2°43.61 297.9 12.1 302 15.9
2008-08-25 08:07:50 51°17.038 2°43.587 298.3 12.1 301 15.9
2008-08-25 08:07:56 51°17.048 2°43.56 297.8 12.1 301 15.8
2008-08-25 08:08:01 51°17.057 2°43.537 297.8 12.1 301 15.9
2008-08-25 08:08:05 51°17.064 2°43.519 297.9 12.1 302 15.9
2008-08-25 08:08:11 51°17.075 2°43.491 297.8 12.1 301 16
2008-08-25 08:08:15 51°17.082 2°43.474 299.1 12.1 304 16
2008-08-25 08:08:20 51°17.091 2°43.451 299.6 12.1 302 15.7
2008-08-25 08:08:25 51°17.1 2°43.429 299.6 12.1 304 15.7
2008-08-25 08:08:31 51°17.112 2°43.402 300.6 12.1 304 15.5
2008-08-25 08:08:36 51°17.121 2°43.38 300.5 12 304 15.4
2008-08-25 08:08:41 51°17.13 2°43.358 300.6 12.1 304 15.3
2008-08-25 08:08:45 51°17.138 2°43.341 301 12.1 305 14.8
2008-08-25 08:08:51 51°17.15 2°43.314 301.2 12 305 14.2
2008-08-25 08:08:56 51°17.159 2°43.292 301.4 12.1 305 13.8
2008-08-25 08:09:00 51°17.167 2°43.275 300.8 12 304 12.9
2008-08-25 08:09:06 51°17.178 2°43.248 300.4 12 304 13.2
2008-08-25 08:09:11 51°17.187 2°43.227 300.5 12 304 14.6
2008-08-25 08:09:16 51°17.196 2°43.205 300.6 12 304 14.5
2008-08-25 08:09:20 51°17.204 2°43.187 301 12 305 14.1
2008-08-25 08:09:25 51°17.213 2°43.165 300.9 12 304 13.1
2008-08-25 08:09:31 51°17.225 2°43.139 300.8 12 305 11.6
2008-08-25 08:09:36 51°17.234 2°43.117 301 12 304 13.5
2008-08-25 08:09:41 51°17.244 2°43.095 301.4 12 305 14.5
2008-08-25 08:09:45 51°17.251 2°43.078 301 12 304 14.1
2008-08-25 08:09:51 51°17.263 2°43.051 300.5 12.1 305 13.6
2008-08-25 08:09:56 51°17.272 2°43.03 301 12 305 13.2
2008-08-25 08:10:00 51°17.28 2°43.012 301.2 12 305 12.7
2008-08-25 08:10:05 51°17.289 2°42.99 300.5 11.9 303 11.8
2008-08-25 08:10:10 51°17.299 2°42.969 300.4 12 305 11.5
2008-08-25 08:10:16 51°17.31 2°42.942 301.1 12 306 11.8
2008-08-25 08:10:21 51°17.32 2°42.921 302.1 12 307 11.8
2008-08-25 08:10:25 51°17.328 2°42.904 302.7 12 307 11.9
2008-08-25 08:10:31 51°17.34 2°42.879 302.8 12 307 11.1
2008-08-25 08:10:36 51°17.35 2°42.857 302.4 12 306 10.9
2008-08-25 08:10:40 51°17.358 2°42.841 302.7 11.9 308 10.7
2008-08-25 08:10:45 51°17.368 2°42.82 303.7 12 308 12.5
2008-08-25 08:10:51 51°17.381 2°42.795 304.2 12.1 310 13.3
2008-08-25 08:10:56 51°17.391 2°42.774 305 12.1 309 13.5
2008-08-25 08:11:00 51°17.4 2°42.758 305.7 12.2 311 13.5
2008-08-25 08:11:05 51°17.411 2°42.737 306.1 12.2 309 13.7
2008-08-25 08:11:11 51°17.424 2°42.713 306.2 12.2 311 14.5
2008-08-25 08:11:16 51°17.436 2°42.693 306.4 12.2 311 15.2
2008-08-25 08:11:20 51°17.444 2°42.676 306.2 12.2 311 16.1
2008-08-25 08:11:26 51°17.457 2°42.651 305.8 12.2 310 17.8
2008-08-25 08:11:31 51°17.468 2°42.63 304.7 12.2 309 19.9
2008-08-25 08:11:36 51°17.478 2°42.609 303.5 12.1 307 21.1
2008-08-25 08:11:40 51°17.487 2°42.592 303.1 12.1 309 21.9
2008-08-25 08:11:45 51°17.497 2°42.571 303.2 12.1 307 22.2
2008-08-25 08:11:51 51°17.509 2°42.545 302.6 12.1 307 22.6
2008-08-25 08:11:56 51°17.519 2°42.524 302.5 12.2 308 22.9
2008-08-25 08:12:00 51°17.528 2°42.507 303.2 12.2 308 23.2
2008-08-25 08:12:05 51°17.538 2°42.486 303.6 12.2 309 23.6
2008-08-25 08:12:11 51°17.551 2°42.461 304 12.2 309 23.8
2008-08-25 08:12:16 51°17.562 2°42.44 304.5 12.2 309 24.1
2008-08-25 08:12:20 51°17.571 2°42.423 304.1 12.2 309 24.2
2008-08-25 08:12:25 51°17.581 2°42.403 304.4 12.1 310 24.1
2008-08-25 08:12:31 51°17.594 2°42.378 304.3 12.1 309 24.4
2008-08-25 08:12:36 51°17.604 2°42.357 303.4 12 308 24.3
2008-08-25 08:12:41 51°17.614 2°42.336 303.2 12 308 24.4
2008-08-25 08:12:45 51°17.623 2°42.319 303.2 12 308 24.5
2008-08-25 08:12:50 51°17.633 2°42.298 303.3 12 309 24.6
2008-08-25 08:12:56 51°17.645 2°42.273 303.3 12 308 24.7
2008-08-25 08:13:00 51°17.653 2°42.257 303.3 12 308 24.8
2008-08-25 08:13:05 51°17.664 2°42.235 302.8 12 306 24.9
2008-08-25 08:13:11 51°17.675 2°42.21 302.4 12 307 24.9
2008-08-25 08:13:16 51°17.685 2°42.189 302.2 12 307 24.9
2008-08-25 08:13:20 51°17.693 2°42.171 301.9 12 307 25.1
2008-08-25 08:13:26 51°17.706 2°42.147 303 12 309 25.3
2008-08-25 08:13:31 51°17.716 2°42.125 303.9 12 307 25.3
2008-08-25 08:13:36 51°17.727 2°42.105 304.7 12.1 310 25.3
2008-08-25 08:13:40 51°17.735 2°42.088 305.5 12.1 310 25.1
2008-08-25 08:13:45 51°17.747 2°42.069 306.6 12.2 312 25.2
2008-08-25 08:13:51 51°17.76 2°42.045 307.6 12.2 312 25.2
2008-08-25 08:13:56 51°17.772 2°42.025 307.6 12.2 312 25.1
2008-08-25 08:14:00 51°17.781 2°42.009 307.9 12.2 313 25.2
2008-08-25 08:14:05 51°17.792 2°41.989 308.4 12.2 313 25.3
2008-08-25 08:14:11 51°17.806 2°41.965 308.2 12.2 313 25.2
2008-08-25 08:14:16 51°17.817 2°41.945 308.4 12.2 312 25.3
2008-08-25 08:14:20 51°17.826 2°41.928 308.3 12.2 312 25.2
2008-08-25 08:14:25 51°17.838 2°41.908 308 12.2 311 25.3
2008-08-25 08:14:31 51°17.851 2°41.884 307.5 12.2 311 25.3
2008-08-25 08:14:36 51°17.862 2°41.864 306.9 12.1 310 25.2
2008-08-25 08:14:40 51°17.871 2°41.848 306.5 12.1 311 25.1
2008-08-25 08:14:45 51°17.882 2°41.827 306.7 12.1 310 25.1
2008-08-25 08:14:51 51°17.895 2°41.803 306.2 12.1 310 25.1
2008-08-25 08:14:55 51°17.904 2°41.786 305.7 12.1 308 25
2008-08-25 08:15:01 51°17.916 2°41.761 304.7 12.1 309 25.1
2008-08-25 08:15:05 51°17.925 2°41.744 304.7 12.2 309 25
2008-08-25 08:15:10 51°17.935 2°41.723 304.6 12.1 309 25
2008-08-25 08:15:16 51°17.948 2°41.698 305 12.1 309 25
2008-08-25 08:15:20 51°17.957 2°41.681 304.8 12.1 308 24.7
2008-08-25 08:15:25 51°17.967 2°41.66 304.7 12.1 308 24.8
2008-08-25 08:15:31 51°17.979 2°41.634 304.1 12.1 307 24.6
2008-08-25 08:15:36 51°17.989 2°41.613 304 12.1 307 24.6
2008-08-25 08:15:40 51°17.998 2°41.596 304 12.1 307 24.6
2008-08-25 08:15:46 51°18.01 2°41.57 303.7 12.2 307 24.4
2008-08-25 08:15:51 51°18.02 2°41.549 303.3 12.1 307 24.2
2008-08-25 08:15:56 51°18.03 2°41.528 303.3 12.1 308 24.3
2008-08-25 08:16:00 51°18.038 2°41.511 303.2 12.1 307 24.2
2008-08-25 08:16:05 51°18.049 2°41.49 303.5 12.1 308 23.7
2008-08-25 08:16:11 51°18.061 2°41.465 304.6 12.1 308 23
2008-08-25 08:16:16 51°18.072 2°41.445 305.2 12.1 310 23.2
2008-08-25 08:16:20 51°18.081 2°41.428 305.5 12.1 308 23.4
2008-08-25 08:16:25 51°18.091 2°41.407 305.7 12.1 310 23.4
2008-08-25 08:16:31 51°18.104 2°41.382 306 12.1 309 23.5
2008-08-25 08:16:36 51°18.115 2°41.361 305.9 12.1 310 23.4
2008-08-25 08:16:40 51°18.123 2°41.344 306.3 12.1 309 23.1
2008-08-25 08:16:45 51°18.134 2°41.324 306.1 12.1 310 23.1
2008-08-25 08:16:50 51°18.144 2°41.303 305.7 12.1 308 22.5
2008-08-25 08:16:56 51°18.156 2°41.277 305 12.1 308 22.4
2008-08-25 08:17:00 51°18.165 2°41.261 304.2 12 308 21.9
2008-08-25 08:17:05 51°18.175 2°41.24 304.1 12 308 19
2008-08-25 08:17:11 51°18.187 2°41.215 303.9 12 307 20.2
2008-08-25 08:17:15 51°18.195 2°41.198 303.6 12 307 21.4
2008-08-25 08:17:21 51°18.207 2°41.172 303.3 12 307 21.5
2008-08-25 08:17:25 51°18.215 2°41.155 303 11.9 307 21.7
2008-08-25 08:17:31 51°18.227 2°41.13 303.3 12 308 21.5
2008-08-25 08:17:36 51°18.238 2°41.109 304 12 308 21.3
2008-08-25 08:17:41 51°18.248 2°41.088 304.1 12 308 21.2
2008-08-25 08:17:45 51°18.257 2°41.072 304.9 12 310 20.9
2008-08-25 08:17:51 51°18.269 2°41.047 305.1 12 309 20.7
2008-08-25 08:17:56 51°18.28 2°41.027 306.2 11.9 311 19.9
2008-08-25 08:18:00 51°18.288 2°41.011 306.5 12 310 19.3
2008-08-25 08:18:05 51°18.299 2°40.991 306.4 12 311 17.4
2008-08-25 08:18:11 51°18.312 2°40.967 306.7 11.9 310 15.6
2008-08-25 08:18:16 51°18.323 2°40.947 306.4 11.9 312 15.2
2008-08-25 08:18:20 51°18.332 2°40.931 306 11.8 309 16
2008-08-25 08:18:25 51°18.342 2°40.911 305.5 11.8 311 16.9
2008-08-25 08:18:31 51°18.354 2°40.887 304.6 11.8 307 17.3
2008-08-25 08:18:36 51°18.364 2°40.866 303.3 11.8 308 17.1
2008-08-25 08:18:40 51°18.372 2°40.849 302.6 11.8 306 14.1
2008-08-25 08:18:45 51°18.382 2°40.829 301.9 11.7 308 15.5
2008-08-25 08:18:51 51°18.394 2°40.804 302.2 11.7 306 17.4
2008-08-25 08:18:56 51°18.403 2°40.783 302.4 11.8 307 18.5
2008-08-25 08:19:01 51°18.413 2°40.762 302.1 11.8 306 19.5
2008-08-25 08:19:05 51°18.421 2°40.744 301.3 11.8 305 19.7
2008-08-25 08:19:10 51°18.43 2°40.723 300.7 11.9 304 19.9
2008-08-25 08:19:16 51°18.441 2°40.697 300.3 11.9 304 20.6
2008-08-25 08:19:21 51°18.45 2°40.675 300.1 11.9 304 20.9
2008-08-25 08:19:25 51°18.458 2°40.657 299.9 11.9 304 20.2
2008-08-25 08:19:31 51°18.469 2°40.631 300.2 12 304 16.7
2008-08-25 08:19:36 51°18.478 2°40.61 300.1 11.9 305 14.7
2008-08-25 08:19:40 51°18.486 2°40.592 299.9 11.8 304 17.4
2008-08-25 08:19:45 51°18.495 2°40.571 299.7 11.9 304 19.1
2008-08-25 08:19:51 51°18.506 2°40.544 299.2 11.9 303 19.4
2008-08-25 08:19:56 51°18.515 2°40.522 299 11.9 304 19.1
2008-08-25 08:20:00 51°18.522 2°40.505 299 11.9 305 17.4
2008-08-25 08:20:05 51°18.532 2°40.483 300.1 11.9 305 13.6
2008-08-25 08:20:11 51°18.543 2°40.457 300.2 11.8 305 14.7
2008-08-25 08:20:16 51°18.552 2°40.436 300 11.8 305 15.1
2008-08-25 08:20:20 51°18.56 2°40.419 300.3 11.8 307 14
2008-08-25 08:20:26 51°18.572 2°40.394 300.6 11.8 305 13.5
2008-08-25 08:20:31 51°18.581 2°40.373 300.3 11.8 306 16.9
2008-08-25 08:20:36 51°18.591 2°40.352 299.7 11.8 305 20
2008-08-25 08:20:41 51°18.6 2°40.33 299.2 11.8 304 21.8
2008-08-25 08:20:45 51°18.607 2°40.313 298.3 11.9 304 22.8
2008-08-25 08:20:51 51°18.618 2°40.287 298.7 11.9 305 23
2008-08-25 08:20:56 51°18.628 2°40.265 299 12 305 23.5
2008-08-25 08:21:00 51°18.635 2°40.247 299.1 11.9 305 23.6
2008-08-25 08:21:05 51°18.645 2°40.226 299 12 304 24
2008-08-25 08:21:11 51°18.656 2°40.199 298.7 12 304 24.4
2008-08-25 08:21:16 51°18.665 2°40.177 298.9 12 305 24.7
2008-08-25 08:21:20 51°18.673 2°40.16 299 12 305 24.9
2008-08-25 08:21:25 51°18.682 2°40.137 299 12 304 24.9
2008-08-25 08:21:31 51°18.694 2°40.111 299.7 12 305 24.7
2008-08-25 08:21:36 51°18.704 2°40.089 300 12.1 305 25
2008-08-25 08:21:41 51°18.714 2°40.068 300.8 12.2 307 25.5
2008-08-25 08:21:45 51°18.722 2°40.051 301.5 12.2 308 25.8
2008-08-25 08:21:50 51°18.733 2°40.03 302.5 12.2 310 25.8
2008-08-25 08:21:56 51°18.746 2°40.005 303.5 12.2 310 25.3
2008-08-25 08:22:00 51°18.754 2°39.988 303.3 12.2 309 25.5
2008-08-25 08:22:05 51°18.765 2°39.967 303.4 12.2 309 25.5
2008-08-25 08:22:11 51°18.778 2°39.942 303.3 12.2 309 25.3
2008-08-25 08:22:16 51°18.789 2°39.921 302.6 12.2 308 24.9
2008-08-25 08:22:21 51°18.8 2°39.9 302.4 12.1 308 25
2008-08-25 08:22:25 51°18.808 2°39.883 302.2 12.2 307 25.1
2008-08-25 08:22:31 51°18.82 2°39.857 302 12.2 307 25.1
2008-08-25 08:22:36 51°18.83 2°39.835 301.7 12.2 307 24.8
2008-08-25 08:22:40 51°18.838 2°39.818 301.7 12.2 307 25.1
2008-08-25 08:22:46 51°18.85 2°39.793 302.1 12.2 309 24.9
2008-08-25 08:22:51 51°18.86 2°39.771 302.4 12.2 307 25.1
2008-08-25 08:22:56 51°18.87 2°39.75 302 12.1 308 25.2
2008-08-25 08:23:00 51°18.879 2°39.733 302.1 12.1 306 25.2
2008-08-25 08:23:05 51°18.888 2°39.711 301.5 12.1 305 25.3
2008-08-25 08:23:11 51°18.899 2°39.684 299.3 11.9 301 25.2
2008-08-25 08:23:16 51°18.908 2°39.661 297.8 11.9 301 25.2
2008-08-25 08:23:20 51°18.914 2°39.643 296.2 12 301 25.3
2008-08-25 08:23:25 51°18.923 2°39.62 295.9 12 301 25.4
2008-08-25 08:23:31 51°18.933 2°39.593 294.8 12 300 25.6
2008-08-25 08:23:36 51°18.941 2°39.569 294.4 12 300 25.7
2008-08-25 08:23:40 51°18.947 2°39.551 293.7 11.9 299 25.7
2008-08-25 08:23:45 51°18.955 2°39.527 293.1 11.9 299 26
2008-08-25 08:23:51 51°18.964 2°39.5 293.5 12 298 26.2
2008-08-25 08:23:56 51°18.972 2°39.477 293 11.9 298 26.3
2008-08-25 08:24:01 51°18.98 2°39.453 292.4 11.9 297 26.5
2008-08-25 08:24:05 51°18.986 2°39.434 291.9 11.9 297 26.6
2008-08-25 08:24:10 51°18.993 2°39.411 291.7 11.9 297 26.8
2008-08-25 08:24:16 51°19.003 2°39.383 292.1 11.9 298 27
2008-08-25 08:24:20 51°19.009 2°39.364 292.5 11.9 297 27.1
2008-08-25 08:24:26 51°19.018 2°39.337 293 11.9 299 27.3
2008-08-25 08:24:31 51°19.026 2°39.313 293.6 11.9 298 27.3
2008-08-25 08:24:35 51°19.033 2°39.295 293.9 11.9 300 27.5
2008-08-25 08:24:40 51°19.041 2°39.272 294.7 11.9 299 27.8
2008-08-25 08:24:45 51°19.049 2°39.249 294.6 11.9 299 27.8
2008-08-25 08:24:51 51°19.059 2°39.222 295.1 12 300 28
2008-08-25 08:24:56 51°19.067 2°39.199 295.4 11.9 301 28
2008-08-25 08:25:00 51°19.074 2°39.18 296 11.9 300 28.4
2008-08-25 08:25:06 51°19.084 2°39.153 295.7 11.9 299 28.4
2008-08-25 08:25:11 51°19.092 2°39.13 295.2 12 300 28.7
2008-08-25 08:25:16 51°19.101 2°39.107 295.3 12 300 28.7
2008-08-25 08:25:20 51°19.107 2°39.089 295.3 11.9 300 28.7
2008-08-25 08:25:25 51°19.115 2°39.066 295.6 12 300 28.9
2008-08-25 08:25:31 51°19.125 2°39.039 295.6 11.9 299 28.8
2008-08-25 08:25:36 51°19.133 2°39.015 295.5 11.9 300 29
2008-08-25 08:25:41 51°19.141 2°38.992 295.8 11.9 299 29.2
2008-08-25 08:25:45 51°19.148 2°38.973 295.5 11.9 300 29.2
2008-08-25 08:25:51 51°19.158 2°38.946 295.7 12 300 29.2
2008-08-25 08:25:56 51°19.166 2°38.922 295.4 12 299 29.2
2008-08-25 08:26:00 51°19.172 2°38.904 295.9 12 300 29.4
2008-08-25 08:26:05 51°19.181 2°38.882 295.9 12 300 29.4
2008-08-25 08:26:11 51°19.191 2°38.855 296.2 12 301 29.3
2008-08-25 08:26:15 51°19.198 2°38.837 296.8 12.1 301 29
2008-08-25 08:26:21 51°19.209 2°38.809 297.5 12 302 29.1
2008-08-25 08:26:25 51°19.215 2°38.791 297.3 12 301 29.1
2008-08-25 08:26:31 51°19.226 2°38.764 297.9 12.1 302 29
2008-08-25 08:26:36 51°19.234 2°38.741 297.5 12 300 28.8
2008-08-25 08:26:40 51°19.241 2°38.722 297.5 12 302 28.8
2008-08-25 08:26:46 51°19.251 2°38.695 297.8 12 300 28.7
2008-08-25 08:26:51 51°19.26 2°38.672 297 12 301 28.6
2008-08-25 08:26:55 51°19.266 2°38.653 297 12 300 28.2
2008-08-25 08:27:00 51°19.275 2°38.631 297.4 12 301 28.2
2008-08-25 08:27:05 51°19.283 2°38.607 296.9 12 299 28.1
2008-08-25 08:27:11 51°19.293 2°38.58 297.1 12.1 301 27.8
2008-08-25 08:27:16 51°19.302 2°38.557 297.3 12.1 299 27.7
2008-08-25 08:27:20 51°19.309 2°38.538 297.2 12.1 301 27.3
2008-08-25 08:27:25 51°19.317 2°38.515 297.2 12.1 302 27.1
2008-08-25 08:27:31 51°19.328 2°38.488 297.9 12.1 301 27
2008-08-25 08:27:36 51°19.336 2°38.465 298.2 12.1 301 26.4
2008-08-25 08:27:40 51°19.344 2°38.447 298 12.2 301 26.3
2008-08-25 08:27:45 51°19.352 2°38.424 298.2 12.1 301 25.7
2008-08-25 08:27:51 51°19.362 2°38.396 297.5 12.1 300 25.6
2008-08-25 08:27:56 51°19.371 2°38.373 297.2 12.1 300 25.5
2008-08-25 08:28:00 51°19.377 2°38.354 297.3 12.1 301 25.3
2008-08-25 08:28:05 51°19.386 2°38.332 298.3 12.1 303 25.1
2008-08-25 08:28:11 51°19.397 2°38.304 298.8 12.1 302 25
2008-08-25 08:28:16 51°19.406 2°38.282 299.6 12.1 303 24.2
2008-08-25 08:28:20 51°19.413 2°38.264 299.4 12.2 302 23
2008-08-25 08:28:25 51°19.423 2°38.241 299.7 12.1 303 23.3
2008-08-25 08:28:31 51°19.434 2°38.214 299.9 12.2 303 24.1
2008-08-25 08:28:36 51°19.443 2°38.192 299.8 12.1 303 24.3
2008-08-25 08:28:41 51°19.452 2°38.169 299.8 12.1 303 24.2
2008-08-25 08:28:45 51°19.46 2°38.151 300.1 12.1 303 23.7
2008-08-25 08:28:51 51°19.47 2°38.124 299.9 12.1 303 22.6
2008-08-25 08:28:56 51°19.479 2°38.102 300 12 303 23.3
2008-08-25 08:29:00 51°19.487 2°38.084 299.4 12.1 301 23.8
2008-08-25 08:29:05 51°19.495 2°38.061 298.7 12 302 23.7
2008-08-25 08:29:11 51°19.506 2°38.034 299 12.1 303 23.1
2008-08-25 08:29:16 51°19.515 2°38.011 299 12 302 22.4
2008-08-25 08:29:20 51°19.522 2°37.994 299.3 12.1 303 20.9
2008-08-25 08:29:26 51°19.533 2°37.966 299.1 12 302 22
2008-08-25 08:29:31 51°19.542 2°37.944 299.1 12 303 22.9
2008-08-25 08:29:36 51°19.551 2°37.921 298.7 12 301 22.8
2008-08-25 08:29:40 51°19.558 2°37.903 299.2 12 303 22.8
2008-08-25 08:29:45 51°19.567 2°37.881 299.4 12 302 22.5
2008-08-25 08:29:51 51°19.578 2°37.854 299.6 12 304 23
2008-08-25 08:29:56 51°19.587 2°37.832 300.2 12 302 22.9
2008-08-25 08:30:00 51°19.594 2°37.814 300.2 12.1 303 22.7
2008-08-25 08:30:05 51°19.604 2°37.791 300 12.1 302 22.1
2008-08-25 08:30:11 51°19.614 2°37.765 299.7 12.1 304 19.6
2008-08-25 08:30:16 51°19.624 2°37.743 300.1 12 304 21.6
2008-08-25 08:30:20 51°19.631 2°37.725 300.3 12 303 22.9
2008-08-25 08:30:25 51°19.64 2°37.702 300.1 12 303 23.4
2008-08-25 08:30:31 51°19.651 2°37.676 299.7 11.9 302 23.3
2008-08-25 08:30:36 51°19.66 2°37.655 300 11.5 304 20.5
2008-08-25 08:30:40 51°19.667 2°37.638 299.7 11.3 303 22.1
2008-08-25 08:30:45 51°19.675 2°37.617 299.4 11.1 304 22.8
2008-08-25 08:30:51 51°19.685 2°37.593 299.6 10.8 303 23
2008-08-25 08:30:55 51°19.692 2°37.578 299.6 10.7 304 23.2
2008-08-25 08:31:01 51°19.702 2°37.554 299.3 10.6 304 23
2008-08-25 08:31:05 51°19.708 2°37.539 299.7 10.5 303 22.7
2008-08-25 08:31:11 51°19.718 2°37.516 299.4 10.5 304 22.9
2008-08-25 08:31:16 51°19.726 2°37.497 298.9 10.4 303 23
2008-08-25 08:31:20 51°19.732 2°37.482 298.9 10.4 304 23.7
2008-08-25 08:31:25 51°19.74 2°37.462 299 10.4 303 23.2
2008-08-25 08:31:31 51°19.75 2°37.439 298.9 10.3 303 21
2008-08-25 08:31:36 51°19.757 2°37.42 298.5 10.3 302 22.1
2008-08-25 08:31:40 51°19.764 2°37.404 298.3 10.3 303 22.6
2008-08-25 08:31:46 51°19.773 2°37.382 298.3 10.3 303 22.9
2008-08-25 08:31:51 51°19.781 2°37.362 298.7 10.3 304 23.3
2008-08-25 08:31:56 51°19.788 2°37.343 298.6 10.2 302 23.3
2008-08-25 08:32:00 51°19.794 2°37.329 298.3 9.8 302 23.4
2008-08-25 08:32:05 51°19.801 2°37.311 298.2 9.4 303 23.4
2008-08-25 08:32:11 51°19.81 2°37.29 298.3 9.2 304 23.3
2008-08-25 08:32:16 51°19.817 2°37.274 298.9 9 304 23.5
2008-08-25 08:32:20 51°19.823 2°37.261 299 8.7 304 23
2008-08-25 08:32:25 51°19.829 2°37.245 299 8.6 305 23.2
2008-08-25 08:32:31 51°19.837 2°37.227 299.2 8.5 305 22.3
2008-08-25 08:32:36 51°19.844 2°37.212 299.3 8.4 305 22.2
2008-08-25 08:32:40 51°19.849 2°37.2 299.2 8.2 306 22.4
2008-08-25 08:32:45 51°19.856 2°37.185 299.4 8.1 305 22.2
2008-08-25 08:32:51 51°19.864 2°37.168 299.6 8.1 306 22.4
2008-08-25 08:32:56 51°19.87 2°37.153 299.1 8.1 305 22.7
2008-08-25 08:33:00 51°19.875 2°37.142 299.2 7.9 306 22.6
2008-08-25 08:33:05 51°19.882 2°37.128 299.9 7.9 307 22.7
2008-08-25 08:33:11 51°19.89 2°37.111 299.9 7.9 306 22.8
2008-08-25 08:33:16 51°19.896 2°37.097 299.7 7.9 306 22.3
2008-08-25 08:33:21 51°19.902 2°37.083 299 7.8 306 22
2008-08-25 08:33:25 51°19.907 2°37.072 298.9 7.7 305 21.2
2008-08-25 08:33:31 51°19.915 2°37.055 298.9 7.7 305 20.8
2008-08-25 08:33:36 51°19.921 2°37.041 299 7.8 306 21.6
2008-08-25 08:33:40 51°19.926 2°37.029 298.9 7.8 306 21.9
2008-08-25 08:33:46 51°19.934 2°37.013 299.2 7.7 306 22.4
2008-08-25 08:33:51 51°19.94 2°37 299.3 7.4 306 22.5
2008-08-25 08:33:55 51°19.944 2°36.99 299.1 7 307 22.4
2008-08-25 08:34:01 51°19.951 2°36.976 298.9 6.7 307 22.7
2008-08-25 08:34:05 51°19.956 2°36.967 298.9 6.4 310 22
2008-08-25 08:34:11 51°19.962 2°36.955 298.9 6 309 22.2
2008-08-25 08:34:16 51°19.968 2°36.945 300.3 5.7 313 22.2
2008-08-25 08:34:20 51°19.972 2°36.939 303.3 5.5 317 22.4
2008-08-25 08:34:25 51°19.978 2°36.931 307.7 5.3 322 22.5
2008-08-25 08:34:31 51°19.985 2°36.924 312.7 5.1 327 22.5
2008-08-25 08:34:36 51°19.991 2°36.919 318.4 4.8 335 22.6
2008-08-25 08:34:41 51°19.997 2°36.915 324.4 4.6 338 22.6
2008-08-25 08:34:45 51°20.001 2°36.913 328.7 4.3 341 22.8
2008-08-25 08:34:51 51°20.008 2°36.91 331.3 4.2 343 22.8
2008-08-25 08:34:56 51°20.013 2°36.907 332.6 4 343 22.9
2008-08-25 08:35:00 51°20.017 2°36.906 333.5 3.7 346 22.9
2008-08-25 08:35:05 51°20.022 2°36.904 333.1 3.4 346 23.2
2008-08-25 08:35:11 51°20.027 2°36.902 332.8 3.3 349 23.4
2008-08-25 08:35:16 51°20.032 2°36.9 331.7 3.2 347 23.6
2008-08-25 08:35:21 51°20.036 2°36.899 330.5 3.1 350 23.8
2008-08-25 08:35:25 51°20.039 2°36.898 329.9 2.9 351 23.7
2008-08-25 08:35:31 51°20.044 2°36.898 329.2 2.8 355 24.1
2008-08-25 08:35:36 51°20.047 2°36.897 328.4 2.7 354 24.3
2008-08-25 08:35:41 51°20.051 2°36.897 327.1 2.6 356 24.1
2008-08-25 08:35:45 51°20.053 2°36.896 326.1 2.4 354 24.4
2008-08-25 08:35:51 51°20.057 2°36.895 325 2.3 354 24.2
2008-08-25 08:35:56 51°20.06 2°36.895 323.6 2.3 355 24.7
2008-08-25 08:36:00 51°20.063 2°36.894 322.3 2.2 355 24.8
2008-08-25 08:36:05 51°20.066 2°36.894 321.4 2.2 356 24.6
2008-08-25 08:36:11 51°20.069 2°36.894 320.4 2.1 354 24.6
2008-08-25 08:36:16 51°20.072 2°36.893 319.3 2 357 24.7
2008-08-25 08:36:20 51°20.074 2°36.893 318.5 1.9 357 24.7
2008-08-25 08:36:26 51°20.077 2°36.893 317.5 1.9 2 24.5
2008-08-25 08:36:31 51°20.08 2°36.894 316.7 1.6 5 24.1
2008-08-25 08:36:36 51°20.082 2°36.894 316 1.6 9 23.7
2008-08-25 08:36:40 51°20.083 2°36.895 315.4 1.6 15 23.7
2008-08-25 08:36:46 51°20.086 2°36.896 314.7 1.5 20 23.1
2008-08-25 08:36:51 51°20.088 2°36.897 314.2 1.5 22 22.6
2008-08-25 08:36:56 51°20.089 2°36.899 313.3 1.5 23 22
2008-08-25 08:37:00 51°20.091 2°36.9 312.2 1.4 24 18.7
2008-08-25 08:37:05 51°20.093 2°36.901 311.5 1.5 25 21.3
2008-08-25 08:37:11 51°20.095 2°36.902 311 1.4 26 21.3
2008-08-25 08:37:16 51°20.097 2°36.904 311 1.5 27 20.6
2008-08-25 08:37:21 51°20.098 2°36.905 311 1.5 29 20.8
2008-08-25 08:37:25 51°20.1 2°36.906 311 1.4 28 21
2008-08-25 08:37:30 51°20.101 2°36.908 311 1.4 30 22.2
2008-08-25 08:37:36 51°20.103 2°36.91 311.1 1.5 29 22.8
2008-08-25 08:37:40 51°20.105 2°36.911 311.3 1.4 31 23
2008-08-25 08:37:45 51°20.106 2°36.912 311.3 1.4 32 23.1
2008-08-25 08:37:51 51°20.108 2°36.914 311.4 1.4 31 23.1
2008-08-25 08:37:56 51°20.11 2°36.915 311.1 1.3 32 22.9
2008-08-25 08:38:01 51°20.111 2°36.917 310.6 1.3 33 22.9
2008-08-25 08:38:05 51°20.113 2°36.918 310.3 1.3 33 23
2008-08-25 08:38:11 51°20.115 2°36.92 309.8 1.3 35 23.2
2008-08-25 08:38:16 51°20.116 2°36.922 309.6 1.4 37 23
2008-08-25 08:38:20 51°20.117 2°36.924 309.6 1.4 36 22.9
2008-08-25 08:38:25 51°20.119 2°36.925 309.8 1.5 37 22.8
2008-08-25 08:38:31 51°20.121 2°36.928 309.8 1.5 37 22.9
2008-08-25 08:38:36 51°20.123 2°36.93 310.2 1.4 37 22.7
2008-08-25 08:38:40 51°20.124 2°36.932 310.9 1.3 36 23
2008-08-25 08:38:46 51°20.126 2°36.934 311.4 1.5 37 22.9
2008-08-25 08:38:51 51°20.128 2°36.936 311.9 1.4 38 22.7
2008-08-25 08:38:56 51°20.129 2°36.938 312 1.6 38 23.1